História da METAR Villefranche De Rouergue Airport (LFCV)

27 de maio de 2022

Hora Código Clima Temp. Visibilidade Tecto Vento METAR/SPECI
1:00 da tarde
V
70 °F 6¼ mi+ 3.800 ft 300° 300° 12 kt METAR LFCK 271100Z AUTO 30012KT 9999 BKN038 BKN045 21/12 Q1025 NOSIG
12:30 da tarde
V
68 °F 6¼ mi+ 4.100 ft 300° 300° 12 kt METAR LFCK 271030Z AUTO 30012KT 9999 SCT034 OVC041 20/12 Q1025 NOSIG
12:00 da tarde
V
68 °F 6¼ mi+ 3.800 ft 310° 310° 11 kt METAR LFCK 271000Z AUTO 31011KT 280V340 9999 SCT031 OVC038 20/12 Q1025 NOSIG
11:30 da manhã
V
66 °F 6¼ mi+ 3.700 ft 300° 300° 12 kt METAR LFCK 270930Z AUTO 30012KT 9999 SCT028 BKN037 19/12 Q1025 NOSIG
11:00 da manhã
V
66 °F 6¼ mi+ - 300° 300° 13 kt METAR LFCK 270900Z AUTO 30013KT 270V330 9999 SCT024 19/12 Q1025 NOSIG
10:30 da manhã
M
64 °F 6¼ mi+ 2.000 ft 310° 310° 11 kt METAR LFCK 270830Z AUTO 31011KT 9999 BKN020 BKN025 18/12 Q1026 NOSIG
10:00 da manhã
M
63 °F 6¼ mi+ 1.800 ft 330° 330° 9 kt METAR LFCK 270800Z AUTO 33009KT 280V350 9999 BKN018 17/12 Q1026 NOSIG
9:30 da manhã
M
61 °F 6¼ mi+ 1.700 ft 320° 320° 8 kt METAR LFCK 270730Z AUTO 32008KT 9999 BKN017 16/12 Q1026 NOSIG
9:00 da manhã
M
61 °F 6¼ mi+ 1.800 ft 310° 310° 8 kt METAR LFCK 270700Z AUTO 31008KT 9999 OVC018 16/12 Q1026 NOSIG
8:30 da manhã
M
59 °F 6¼ mi+ 1.700 ft 300° 300° 8 kt METAR LFCK 270630Z AUTO 30008KT 270V330 9999 OVC017 15/12 Q1026 NOSIG
8:00 da manhã
M
59 °F 6¼ mi+ 1.700 ft 280° 280° 6 kt METAR LFCK 270600Z AUTO 28006KT 9999 OVC017 15/12 Q1026 NOSIG
7:30 da manhã
M
57 °F 6¼ mi+ 1.700 ft 290° 290° 5 kt METAR LFCK 270530Z AUTO 29005KT 9999 BKN017 OVC050 14/12 Q1026 NOSIG
7:00 da manhã
M
57 °F 6¼ mi+ 1.800 ft 280° 280° 6 kt METAR LFCK 270500Z AUTO 28006KT 9999 OVC018 14/12 Q1026
6:30 da manhã
M
57 °F 6¼ mi+ 1.800 ft 280° 280° 5 kt METAR LFCK 270430Z AUTO 28005KT 9999 BKN018 OVC050 14/11 Q1026
6:00 da manhã
M
57 °F 6¼ mi+ 1.900 ft 280° 280° 6 kt METAR LFCK 270400Z AUTO 28006KT 9999 BKN019 OVC050 14/12 Q1026
5:30 da manhã
V
57 °F 6¼ mi+ 5.200 ft 270° 270° 6 kt METAR LFCK 270330Z AUTO 27006KT 9999 FEW020 OVC052 14/11 Q1026
5:00 da manhã
V
57 °F 6¼ mi+ - 280° 280° 6 kt METAR LFCK 270300Z AUTO 28006KT CAVOK 14/11 Q1026
4:30 da manhã
V
57 °F 6¼ mi+ - 280° 280° 6 kt METAR LFCK 270230Z AUTO 28006KT CAVOK 14/11 Q1026
4:00 da manhã
V
59 °F 6¼ mi+ - 280° 280° 7 kt METAR LFCK 270200Z AUTO 28007KT CAVOK 15/12 Q1026
3:30 da manhã
V
59 °F 6¼ mi+ 4.900 ft 280° 280° 5 kt METAR LFCK 270130Z AUTO 28005KT 9999 OVC049 15/12 Q1026
3:00 da manhã
V
59 °F 6¼ mi+ - 270° 270° 5 kt METAR LFCK 270100Z AUTO 27005KT CAVOK 15/12 Q1026
2:30 da manhã
V
61 °F 6¼ mi+ - 300° 300° 6 kt METAR LFCK 270030Z AUTO 30006KT CAVOK 16/12 Q1026
2:00 da manhã
V
61 °F 6¼ mi+ - 300° 300° 6 kt METAR LFCK 270000Z AUTO 30006KT CAVOK 16/12 Q1027
1:30 da manhã
V
61 °F 6¼ mi+ - 300° 300° 6 kt METAR LFCK 262330Z AUTO 30006KT CAVOK 16/12 Q1027
1:00 da manhã
V
61 °F 6¼ mi+ - 280° 280° 6 kt METAR LFCK 262300Z AUTO 28006KT CAVOK 16/12 Q1027
12:30 da manhã
V
61 °F 6¼ mi+ - 300° 300° 6 kt METAR LFCK 262230Z AUTO 30006KT CAVOK 16/12 Q1027
12:00 da manhã
V
63 °F 6¼ mi+ - 290° 290° 6 kt METAR LFCK 262200Z AUTO 29006KT CAVOK 17/12 Q1027

26 de maio de 2022

Hora Código Clima Temp. Visibilidade Tecto Vento METAR/SPECI
11:30 da tarde
V
63 °F 6¼ mi+ - 290° 290° 6 kt METAR LFCK 262130Z AUTO 29006KT CAVOK 17/12 Q1027
11:00 da tarde
V
63 °F 6¼ mi+ - 280° 280° 5 kt METAR LFCK 262100Z AUTO 28005KT CAVOK 17/11 Q1027 NOSIG
10:30 da tarde
V
63 °F 6¼ mi+ - 300° 300° 6 kt METAR LFCK 262030Z AUTO 30006KT CAVOK 17/11 Q1027 NOSIG
10:00 da tarde
V
63 °F 6¼ mi+ - 300° 300° 8 kt METAR LFCK 262000Z AUTO 30008KT CAVOK 17/11 Q1027 NOSIG
9:30 da tarde
V
64 °F 6¼ mi+ - 300° 300° 9 kt METAR LFCK 261930Z AUTO 30009KT CAVOK 18/11 Q1027 NOSIG
9:00 da tarde
V
64 °F 6¼ mi+ - 300° 300° 8 kt METAR LFCK 261900Z AUTO 30008KT CAVOK 18/11 Q1026 NOSIG
8:30 da tarde
V
64 °F 6¼ mi+ - 300° 300° 10 kt METAR LFCK 261830Z AUTO 30010KT CAVOK 18/11 Q1026 NOSIG
8:00 da tarde
V
64 °F 6¼ mi+ - 300° 300° 11 kt METAR LFCK 261800Z AUTO 30011KT CAVOK 18/11 Q1026 NOSIG
7:30 da tarde
V
64 °F 6¼ mi+ 5.400 ft 300° 300° 13 kt METAR LFCK 261730Z AUTO 30013KT 9999 FEW031 BKN054 18/11 Q1026 NOSIG
7:00 da tarde
V
64 °F 6¼ mi+ - 300° 300° 14 kt METAR LFCK 261700Z AUTO 30014KT CAVOK 18/11 Q1026 NOSIG
6:30 da tarde
V
64 °F 6¼ mi+ 5.400 ft 290° 290° 13 kt METAR LFCK 261630Z AUTO 29013KT 9999 FEW028 OVC054 18/11 Q1026 NOSIG
6:00 da tarde
V
64 °F 6¼ mi+ 5.200 ft 290° 290° 13 kt METAR LFCK 261600Z AUTO 29013KT 9999 FEW042 OVC052 18/11 Q1026 NOSIG
5:30 da tarde
V
64 °F 6¼ mi+ 3.600 ft 300° 300° 17 kt METAR LFCK 261530Z AUTO 30017KT 9999 FEW028 BKN036 OVC052 18/11 Q1026 NOSIG
5:00 da tarde
V
66 °F 6¼ mi+ 5.200 ft 300° 300° 13 kt METAR LFCK 261500Z AUTO 30013KT 270V330 9999 SCT033 OVC052 19/10 Q1027 NOSIG
4:30 da tarde
V
64 °F 6¼ mi+ 5.200 ft 300° 300° 13 kt METAR LFCK 261430Z AUTO 30013KT 9999 FEW038 SCT045 OVC052 18/10 Q1027 NOSIG
4:00 da tarde
V
64 °F 6¼ mi+ 4.500 ft 300° 300° 13 kt METAR LFCK 261400Z AUTO 30013KT 9999 SCT035 OVC045 18/10 Q1027 NOSIG
3:30 da tarde
V
64 °F 6¼ mi+ 3.700 ft 290° 290° 13 kt METAR LFCK 261330Z AUTO 29013KT 9999 BKN037 OVC043 18/10 Q1027 NOSIG
3:00 da tarde
V
64 °F 6¼ mi+ 3.900 ft 290° 290° 14 kt METAR LFCK 261300Z AUTO 29014KT 9999 BKN039 OVC047 18/09 Q1027 TEMPO 29015G25KT
2:30 da tarde
V
64 °F 6¼ mi+ 4.100 ft 290° 290° 13 kt METAR LFCK 261230Z AUTO 29013KT 260V320 9999 FEW034 BKN041 OVC052 18/10 Q1027 TEMPO 29015G25KT
2:00 da tarde
V
63 °F 6¼ mi+ 3.700 ft 290° 290° 15 kt METAR LFCK 261200Z AUTO 29015KT 9999 SCT030 BKN037 BKN043 17/10 Q1027 TEMPO 29015G25KT
1:30 da tarde
V
63 °F 6¼ mi+ 3.700 ft 300° 300° 16 kt METAR LFCK 261130Z AUTO 30016KT 9999 SCT029 BKN037 OVC050 17/10 Q1027 TEMPO 29015G25KT
1:00 da tarde
V
64 °F 6¼ mi+ 4.400 ft 310° 310° 16 kt METAR LFCK 261100Z AUTO 31016KT 280V340 9999 BKN044 OVC056 18/08 Q1027 TEMPO 29015G25KT
12:30 da tarde
V
64 °F 6¼ mi+ 5.000 ft 310° 310° 12 kt METAR LFCK 261030Z AUTO 31012KT 9999 FEW035 SCT044 OVC050 18/09 Q1027 TEMPO 29015G25KT
12:00 da tarde
V
63 °F 6¼ mi+ 4.300 ft 310° 310° 14 kt METAR LFCK 261000Z AUTO 31014KT 9999 FEW033 BKN043 OVC050 17/09 Q1028 NOSIG
11:30 da manhã
V
63 °F 6¼ mi+ 4.100 ft 290° 290° 15 kt METAR LFCK 260930Z AUTO 29015KT 9999 SCT034 BKN041 BKN048 17/09 Q1028 NOSIG
11:00 da manhã
V
63 °F 6¼ mi+ 3.200 ft 300° 300° 14 kt METAR LFCK 260900Z AUTO 30014KT 9999 SCT024 BKN032 BKN040 17/10 Q1028 NOSIG
10:30 da manhã
M
61 °F 6¼ mi+ 2.100 ft 300° 300° 11 kt METAR LFCK 260830Z AUTO 30011KT 270V350 9999 BKN021 BKN029 BKN034 16/10 Q1028 NOSIG
10:00 da manhã
M
61 °F 6¼ mi+ 2.200 ft 310° 310° 8 kt METAR LFCK 260800Z AUTO 31008KT 270V340 9999 BKN022 BKN029 16/11 Q1028 NOSIG
9:30 da manhã
M
57 °F 6¼ mi+ 2.000 ft 290° 290° 7 kt METAR LFCK 260730Z AUTO 29007KT 9999 OVC020 14/10 Q1028 NOSIG
9:00 da manhã
M
57 °F 6¼ mi+ 1.600 ft 300° 300° 9 kt METAR LFCK 260700Z AUTO 30009KT 9999 OVC016 14/10 Q1028 TEMPO BKN014 BKN035
8:30 da manhã
M
55 °F 6¼ mi+ 1.500 ft 300° 300° 9 kt METAR LFCK 260630Z AUTO 30009KT 270V330 9999 BKN015 13/10 Q1027 NOSIG
8:00 da manhã
V
55 °F 6¼ mi+ - 300° 300° 7 kt METAR LFCK 260600Z AUTO 30007KT 9999 FEW016 13/09 Q1027 NOSIG
7:30 da manhã
V
54 °F 6¼ mi+ - 300° 300° 3 kt METAR LFCK 260530Z AUTO 30003KT CAVOK 12/09 Q1027 NOSIG
7:00 da manhã
V
54 °F 6¼ mi+ - 310° 310° 6 kt METAR LFCK 260500Z AUTO 31006KT CAVOK 12/09 Q1027
6:30 da manhã
V
54 °F 6¼ mi+ - 310° 310° 5 kt METAR LFCK 260430Z AUTO 31005KT CAVOK 12/09 Q1027
6:00 da manhã
V
50 °F 6¼ mi+ - Var Var 2 kt METAR LFCK 260400Z AUTO VRB02KT CAVOK 10/09 Q1026
5:30 da manhã
V
50 °F 6¼ mi+ - 310° 310° 3 kt METAR LFCK 260330Z AUTO 31003KT 290V350 CAVOK 10/08 Q1026
5:00 da manhã
V
52 °F 6¼ mi+ - 300° 300° 5 kt METAR LFCK 260300Z AUTO 30005KT CAVOK 11/09 Q1026
4:30 da manhã
V
54 °F 6¼ mi+ - 280° 280° 5 kt METAR LFCK 260230Z AUTO 28005KT CAVOK 12/09 Q1026
4:00 da manhã
V
55 °F 6¼ mi+ - 300° 300° 6 kt METAR LFCK 260200Z AUTO 30006KT CAVOK 13/10 Q1026
3:30 da manhã
V
55 °F 6¼ mi+ - 310° 310° 7 kt METAR LFCK 260130Z AUTO 31007KT CAVOK 13/10 Q1026
3:00 da manhã
V
55 °F 6¼ mi+ - 310° 310° 7 kt METAR LFCK 260100Z AUTO 31007KT CAVOK 13/10 Q1026
2:30 da manhã
V
57 °F 6¼ mi+ - 290° 290° 4 kt METAR LFCK 260030Z AUTO 29004KT CAVOK 14/10 Q1026
2:00 da manhã
V
57 °F 6¼ mi+ - Var Var 3 kt METAR LFCK 260000Z AUTO VRB03KT CAVOK 14/10 Q1026
1:30 da manhã
V
57 °F 6¼ mi+ - 300° 300° 5 kt METAR LFCK 252330Z AUTO 30005KT CAVOK 14/10 Q1026
1:00 da manhã
V
59 °F 6¼ mi+ - 290° 290° 5 kt METAR LFCK 252300Z AUTO 29005KT CAVOK 15/10 Q1026
12:30 da manhã
V
59 °F 6¼ mi+ - 290° 290° 6 kt METAR LFCK 252230Z AUTO 29006KT CAVOK 15/09 Q1026
12:00 da manhã
V
59 °F 6¼ mi+ - 280° 280° 7 kt METAR LFCK 252200Z AUTO 28007KT CAVOK 15/09 Q1026

25 de maio de 2022

Hora Código Clima Temp. Visibilidade Tecto Vento METAR/SPECI
11:30 da tarde
V
61 °F 6¼ mi+ - 280° 280° 10 kt METAR LFCK 252130Z AUTO 28010KT CAVOK 16/09 Q1026
11:00 da tarde
V
61 °F 6¼ mi+ - 280° 280° 10 kt METAR LFCK 252100Z AUTO 28010KT CAVOK 16/09 Q1026 NOSIG
10:30 da tarde
V
63 °F 6¼ mi+ - 280° 280° 9 kt METAR LFCK 252030Z AUTO 28009KT CAVOK 17/09 Q1025 NOSIG
10:00 da tarde
V
64 °F 6¼ mi+ - 280° 280° 10 kt METAR LFCK 252000Z AUTO 28010KT CAVOK 18/09 Q1025 NOSIG
9:30 da tarde
V
64 °F 6¼ mi+ - 290° 290° 14 kt METAR LFCK 251930Z AUTO 29014KT CAVOK 18/08 Q1024 NOSIG
9:00 da tarde
V
66 °F 6¼ mi+ - 310° 310° 14 kt METAR LFCK 251900Z AUTO 31014KT CAVOK 19/07 Q1024 NOSIG
8:30 da tarde
V
66 °F 6¼ mi+ - 300° 300° 13 kt METAR LFCK 251830Z AUTO 30013KT CAVOK 19/07 Q1023 NOSIG
8:00 da tarde
V
66 °F 6¼ mi+ - 310° 310° 15 kt METAR LFCK 251800Z AUTO 31015KT CAVOK 19/06 Q1023 TEMPO 31015G25KT
7:30 da tarde
V
66 °F 6¼ mi+ - 320° 320° 16 kt METAR LFCK 251730Z AUTO 32016KT CAVOK 19/06 Q1023 TEMPO 31015G25KT
7:00 da tarde
V
66 °F 6¼ mi+ - 310° 310° 14 kt METAR LFCK 251700Z AUTO 31014KT 280V340 CAVOK 19/06 Q1022 BECMG 31015G25KT
6:30 da tarde
V
68 °F 6¼ mi+ - 310° 310° 17 kt METAR LFCK 251630Z AUTO 31017KT CAVOK 20/06 Q1022 BECMG 31015G25KT
6:00 da tarde
V
68 °F 6¼ mi+ - 310° 310° 18 kt METAR LFCK 251600Z AUTO 31018KT CAVOK 20/06 Q1022 BECMG 31015G25KT
5:30 da tarde
V
68 °F 6¼ mi+ - 300° 300° 17 kt METAR LFCK 251530Z AUTO 30017KT CAVOK 20/06 Q1022 BECMG 31015G25KT
5:00 da tarde
V
68 °F 6¼ mi+ - 300° 300° 19 kt METAR LFCK 251500Z AUTO 30019KT CAVOK 20/07 Q1022 BECMG 31015G25KT
4:30 da tarde
V
66 °F 6¼ mi+ - 300° 300° 16 kt METAR LFCK 251430Z AUTO 30016KT CAVOK 19/07 Q1022 BECMG 31015G25KT
4:00 da tarde
V
66 °F 6¼ mi+ - 310° 310° 16 kt METAR LFCK 251400Z AUTO 31016KT CAVOK 19/06 Q1022 BECMG 30015G25KT
3:30 da tarde
V
66 °F 6¼ mi+ - 300° 300° 17 kt METAR LFCK 251330Z AUTO 30017KT 270V350 CAVOK 19/07 Q1022 BECMG 30015G25KT
3:00 da tarde
V
66 °F 6¼ mi+ - 310° 310° 17 kt METAR LFCK 251300Z AUTO 31017KT 280V340 CAVOK 19/07 Q1021 BECMG 30015G25KT
2:30 da tarde
V
64 °F 6¼ mi+ 6.400 ft 300° 300° 17 kt METAR LFCK 251230Z AUTO 30017KT 270V330 9999 FEW046 SCT052 BKN064 18/07 Q1022 BECMG 30015G25KT
2:00 da tarde
V
64 °F 6¼ mi+ 4.500 ft 300° 300° 16 kt METAR LFCK 251200Z AUTO 30016KT 280V340 9999 BKN045 BKN052 OVC070 18/07 Q1022 BECMG 30015G25KT
1:30 da tarde
V
64 °F 6¼ mi+ 5.600 ft 300° 300° 17 kt METAR LFCK 251130Z AUTO 30017KT 260V330 9999 SCT045 BKN056 OVC066 18/07 Q1022 BECMG 30015G25KT
1:00 da tarde
V
64 °F 6¼ mi+ 4.400 ft 300° 300° 17 kt METAR LFCK 251100Z AUTO 30017KT 9999 BKN044 OVC060 18/07 Q1021 BECMG 29015G25KT
Dados mais antigos

Baixe nosso aplicativo

Fácil acesso a todas as condições meteorológicas da aviação no seu celular e no seu tablet.
Com muitas características não disponíveis no site, como suporte offline e uma lista pessoal de aeroportos.

Nós e terceiros acompanhamos seu comportamento na internet em nosso site com cookies. Se você continuar, nós assumimos que você concorda com nossa política de cookies. Saiba mais